Main page
METAR-TAF:

METAR-TAF

Airports :

Warsaw Chopin Airport

Warsaw, Poland

latitude: 52-10N, longitude: 020-58E, elevation: 106 m

Current weather observation

The report was made 15 minutes ago, at 22:00 UTC
Wind 7 kt from the East
Temperature -5°C
Humidity 86%
Pressure 1012 hPa
Visibility: 7000 m
Few clouds at a height of 2000 ft

METAR: EPWA 222200Z 08007KT 7000 FEW020 M05/M07 Q1012 NOSIG

Time: 23:15 (22:15 UTC)

Forecast

The report was made 1 hour and 45 minutes ago, at 20:30 UTC
Forecast valid from 22 at 21 UTC to 23 at 21 UTC
Wind 8 kt from the East/Southeast
Visibility 10 km or more
Broken clouds at a height of 3000 ft
Becoming
from 22 at 22 UTC to 22 at 24 UTC
Broken clouds at a height of 1000 ft
Probability 40%
from 23 at 00 UTC to 23 at 08 UTC
Visibility: 3000 m
Broken clouds at a height of 500 ft
mist
Becoming
from 23 at 09 UTC to 23 at 11 UTC
Broken clouds at a height of 2000 ft

TAF: EPWA 222030Z 2221/2321 12008KT 9999 BKN030 BECMG 2222/2224 BKN010 PROB40 2300/2308 3000 BR BKN005 BECMG 2309/2311 BKN020

Weather observations and forecasts of more than 4000 airports (METAR and TAF reports).

The available stations are represented by yellow and red dots on the map.

Hover mouse over dot to see the name of the station.

Then click to see weather observations and forecasts.

To change the map : click on the green buttons with a black cross to zoom in, on the green button with a dash to zoom out, or on the green arrows for adjacent maps.


METAR-TAF: